createdAt,value
2023-02-04T00:01:43.353Z,100956.38
2023-02-04T00:04:09.787Z,100960.81
2023-02-04T00:06:36.088Z,100961.50
2023-02-04T00:09:02.440Z,100965.84
2023-02-04T00:11:28.772Z,100970.25
2023-02-04T00:13:55.153Z,100959.44
2023-02-04T00:16:21.589Z,100970.13
2023-02-04T00:18:47.956Z,100962.47
2023-02-04T00:21:14.269Z,100959.38
2023-02-04T00:23:41.122Z,100960.28
2023-02-04T00:26:07.666Z,100974.03
2023-02-04T00:28:34.034Z,100973.19
2023-02-04T00:31:00.354Z,100972.44
2023-02-04T00:33:26.742Z,100970.81
2023-02-04T00:35:53.054Z,100969.75
2023-02-04T00:38:20.730Z,100977.56
2023-02-04T00:40:47.012Z,100978.28
2023-02-04T00:43:13.340Z,100984.53
2023-02-04T00:45:39.801Z,100978.44
2023-02-04T00:48:06.144Z,100991.09
2023-02-04T00:50:34.832Z,100997.06
2023-02-04T00:53:01.950Z,100991.94
2023-02-04T00:55:29.499Z,100995.06
2023-02-04T00:57:55.840Z,101009.16
2023-02-04T01:00:22.339Z,101013.56
2023-02-04T01:02:48.665Z,101000.06
2023-02-04T01:05:15.093Z,100999.63
2023-02-04T01:07:41.473Z,101009.44
2023-02-04T01:10:07.899Z,101004.09
2023-02-04T01:12:34.385Z,100999.69
2023-02-04T01:15:00.893Z,101004.56
2023-02-04T01:17:27.263Z,101020.22
2023-02-04T01:19:53.837Z,101027.19
2023-02-04T01:22:20.412Z,101019.72
2023-02-04T01:24:46.892Z,101037.06
2023-02-04T01:27:31.828Z,101034.59
2023-02-04T01:29:58.133Z,101041.00
2023-02-04T01:32:24.454Z,101034.97
2023-02-04T01:34:52.136Z,101036.03
2023-02-04T01:37:18.764Z,101042.81
2023-02-04T01:39:45.077Z,101051.22
2023-02-04T01:42:13.374Z,101049.78
2023-02-04T01:44:39.941Z,101042.72
2023-02-04T01:47:06.402Z,101053.13
2023-02-04T01:49:32.999Z,101051.34
2023-02-04T01:51:59.612Z,101055.84
2023-02-04T01:54:26.699Z,101053.25
2023-02-04T01:56:55.089Z,101040.16
2023-02-04T01:59:22.139Z,101043.28
2023-02-04T02:01:51.116Z,101051.81
2023-02-04T02:04:22.833Z,101059.50
2023-02-04T02:06:58.736Z,101052.94
2023-02-04T02:09:27.105Z,101071.34
2023-02-04T02:11:53.596Z,101088.75
2023-02-04T02:14:20.344Z,101086.47
2023-02-04T02:16:46.901Z,101073.91
2023-02-04T02:19:20.000Z,101070.28
2023-02-04T02:21:54.944Z,101076.69
2023-02-04T02:24:34.481Z,101069.84
2023-02-04T02:27:08.289Z,101071.41
2023-02-04T02:29:36.357Z,101073.78
2023-02-04T02:32:02.698Z,101086.66
2023-02-04T02:34:30.181Z,101099.00
2023-02-04T02:36:58.679Z,101104.03
2023-02-04T02:39:26.024Z,101098.31
2023-02-04T02:41:52.516Z,101083.69
2023-02-04T02:44:19.232Z,101101.16
2023-02-04T02:46:45.622Z,101087.06
2023-02-04T02:49:19.759Z,101098.97
2023-02-04T02:51:48.470Z,101096.97
2023-02-04T02:54:27.204Z,101097.72
2023-02-04T02:56:56.810Z,101103.13
2023-02-04T02:59:24.683Z,101114.81
2023-02-04T03:01:57.343Z,101126.28
2023-02-04T03:04:28.477Z,101123.75
2023-02-04T03:06:56.038Z,101124.56
2023-02-04T03:09:25.147Z,101114.63
2023-02-04T03:11:52.124Z,101119.34
2023-02-04T03:14:19.208Z,101129.88
2023-02-04T03:16:47.488Z,101124.56
2023-02-04T03:19:14.086Z,101123.56
2023-02-04T03:21:41.415Z,101119.41
2023-02-04T03:24:08.072Z,101121.94
2023-02-04T03:26:36.588Z,101134.28
2023-02-04T03:29:03.019Z,101131.66
2023-02-04T03:31:29.432Z,101124.88
2023-02-04T03:33:55.789Z,101129.94
2023-02-04T03:36:22.322Z,101125.91
2023-02-04T03:38:48.642Z,101137.75
2023-02-04T03:41:14.924Z,101130.97
2023-02-04T03:43:41.255Z,101133.72
2023-02-04T03:46:07.645Z,101149.19
2023-02-04T03:48:33.977Z,101142.78
2023-02-04T03:51:00.300Z,101147.94
2023-02-04T03:53:26.637Z,101150.31
2023-02-04T03:55:52.962Z,101150.41
2023-02-04T03:58:19.564Z,101161.13
2023-02-04T04:00:45.856Z,101165.28
2023-02-04T04:03:12.150Z,101167.91
2023-02-04T04:05:38.486Z,101172.03
2023-02-04T04:08:04.955Z,101155.41
2023-02-04T04:10:31.704Z,101173.25
2023-02-04T04:12:58.189Z,101169.22
2023-02-04T04:15:24.741Z,101186.59
2023-02-04T04:17:51.048Z,101176.25
2023-02-04T04:20:17.534Z,101174.09
2023-02-04T04:22:45.686Z,101176.91
2023-02-04T04:25:12.031Z,101166.78
2023-02-04T04:27:38.375Z,101178.75
2023-02-04T04:30:05.150Z,101178.50
2023-02-04T04:32:31.565Z,101180.66
2023-02-04T04:34:57.896Z,101180.84
2023-02-04T04:37:24.199Z,101176.31
2023-02-04T04:39:50.506Z,101180.72
2023-02-04T04:42:16.818Z,101181.44
2023-02-04T04:44:43.136Z,101181.56
2023-02-04T04:47:09.451Z,101182.38
2023-02-04T04:49:35.825Z,101185.25
2023-02-04T04:52:02.187Z,101189.63
2023-02-04T04:54:28.500Z,101196.44
2023-02-04T04:56:54.920Z,101180.84
2023-02-04T04:59:21.224Z,101199.97
2023-02-04T05:01:47.626Z,101195.63
2023-02-04T05:04:13.920Z,101184.50
2023-02-04T05:06:40.224Z,101198.13
2023-02-04T05:09:06.585Z,101206.94
2023-02-04T05:11:33.359Z,101201.94
2023-02-04T05:13:59.805Z,101190.84
2023-02-04T05:16:26.184Z,101206.50
2023-02-04T05:18:52.635Z,101211.41
2023-02-04T05:21:18.991Z,101209.03
2023-02-04T05:23:45.327Z,101213.59
2023-02-04T05:26:15.358Z,101221.19
2023-02-04T05:28:48.456Z,101229.41
2023-02-04T05:31:14.893Z,101235.38
2023-02-04T05:33:41.269Z,101233.94
2023-02-04T05:36:07.558Z,101233.94
2023-02-04T05:38:33.880Z,101237.59
2023-02-04T05:41:00.186Z,101241.59
2023-02-04T05:43:26.478Z,101255.34
2023-02-04T05:45:52.871Z,101256.88
2023-02-04T05:48:19.277Z,101256.81
2023-02-04T05:50:45.568Z,101260.13
2023-02-04T05:53:11.980Z,101256.44
2023-02-04T05:55:39.042Z,101253.94
2023-02-04T05:58:05.407Z,101254.38
2023-02-04T06:00:32.027Z,101271.97
2023-02-04T06:02:58.506Z,101267.31
2023-02-04T06:05:24.894Z,101259.00
2023-02-04T06:07:51.336Z,101271.75
2023-02-04T06:10:18.101Z,101275.28
2023-02-04T06:12:44.418Z,101280.25
2023-02-04T06:15:11.730Z,101281.34
2023-02-04T06:17:38.090Z,101269.63
2023-02-04T06:20:05.667Z,101270.53
2023-02-04T06:22:32.007Z,101281.75
2023-02-04T06:24:58.695Z,101293.72
2023-02-04T06:27:25.052Z,101292.78
2023-02-04T06:29:53.463Z,101289.72
2023-02-04T06:32:21.073Z,101280.75
2023-02-04T06:34:47.472Z,101284.41
2023-02-04T06:37:15.702Z,101300.06
2023-02-04T06:39:42.019Z,101293.72
2023-02-04T06:42:08.725Z,101281.50
2023-02-04T06:44:35.049Z,101288.47
2023-02-04T06:47:01.379Z,101293.97
2023-02-04T06:49:27.895Z,101307.13
2023-02-04T06:51:55.140Z,101311.06
2023-02-04T06:54:21.587Z,101316.75
2023-02-04T06:56:48.079Z,101312.59
2023-02-04T06:59:14.356Z,101317.91
2023-02-04T07:01:40.705Z,101321.13
2023-02-04T07:04:07.048Z,101316.28
2023-02-04T07:06:33.348Z,101330.19
2023-02-04T07:08:59.692Z,101331.34
2023-02-04T07:11:26.050Z,101335.34
2023-02-04T07:13:52.321Z,101346.78
2023-02-04T07:16:18.671Z,101341.13
2023-02-04T07:18:45.093Z,101334.16
2023-02-04T07:21:11.388Z,101339.59
2023-02-04T07:23:37.712Z,101340.59
2023-02-04T07:26:04.055Z,101341.50
2023-02-04T07:28:31.406Z,101350.19
2023-02-04T07:30:57.814Z,101346.69
2023-02-04T07:33:24.158Z,101345.50
2023-02-04T07:35:50.489Z,101348.09
2023-02-04T07:38:16.851Z,101349.06
2023-02-04T07:40:43.154Z,101362.09
2023-02-04T07:43:09.559Z,101358.44
2023-02-04T07:45:35.841Z,101368.31
2023-02-04T07:48:02.135Z,101359.56
2023-02-04T07:50:28.455Z,101368.06
2023-02-04T07:52:54.839Z,101376.63
2023-02-04T07:55:21.204Z,101383.38
2023-02-04T07:57:47.509Z,101385.41
2023-02-04T08:00:14.517Z,101385.41
2023-02-04T08:02:41.694Z,101377.25
2023-02-04T08:05:09.856Z,101386.59
2023-02-04T08:07:36.203Z,101384.97
2023-02-04T08:10:07.040Z,101396.47
2023-02-04T08:12:33.439Z,101385.09
2023-02-04T08:15:01.181Z,101389.38
2023-02-04T08:17:27.905Z,101395.19
2023-02-04T08:19:54.279Z,101397.63
2023-02-04T08:22:20.680Z,101409.53
2023-02-04T08:24:46.998Z,101409.00
2023-02-04T08:27:13.770Z,101387.28
2023-02-04T08:29:40.154Z,101402.78
2023-02-04T08:32:06.529Z,101401.06
2023-02-04T08:34:32.886Z,101399.06
2023-02-04T08:36:59.173Z,101401.44
2023-02-04T08:39:25.470Z,101404.38
2023-02-04T08:41:51.756Z,101403.28
2023-02-04T08:44:18.117Z,101408.53
2023-02-04T08:46:44.542Z,101418.44
2023-02-04T08:49:10.909Z,101412.88
2023-02-04T08:51:37.236Z,101417.84
2023-02-04T08:54:03.720Z,101425.47
2023-02-04T08:56:31.067Z,101407.13
2023-02-04T08:58:57.379Z,101419.94
2023-02-04T09:01:23.787Z,101418.84
2023-02-04T09:03:50.110Z,101427.28
2023-02-04T09:06:16.394Z,101428.88
2023-02-04T09:08:42.733Z,101429.63
2023-02-04T09:11:11.157Z,101432.41
2023-02-04T09:13:38.191Z,101437.09
2023-02-04T09:16:04.960Z,101444.91
2023-02-04T09:18:32.526Z,101445.22
2023-02-04T09:20:59.200Z,101442.88
2023-02-04T09:23:25.614Z,101450.22
2023-02-04T09:25:51.972Z,101444.03
2023-02-04T09:28:18.373Z,101455.69
2023-02-04T09:30:46.510Z,101462.84
2023-02-04T09:33:14.975Z,101456.78
2023-02-04T09:35:41.253Z,101465.22
2023-02-04T09:38:07.583Z,101460.94
2023-02-04T09:40:37.338Z,101469.28
2023-02-04T09:43:05.491Z,101474.53
2023-02-04T09:45:34.861Z,101469.53
2023-02-04T09:48:04.265Z,101474.97
2023-02-04T09:50:32.677Z,101475.84
2023-02-04T09:53:03.955Z,101478.38
2023-02-04T09:55:34.227Z,101492.19
2023-02-04T09:58:00.651Z,101489.81
2023-02-04T10:00:29.471Z,101499.06
2023-02-04T10:03:00.004Z,101503.59
2023-02-04T10:05:31.941Z,101496.25
2023-02-04T10:07:58.943Z,101491.69
2023-02-04T10:10:27.372Z,101497.34
2023-02-04T10:12:58.994Z,101493.78
2023-02-04T10:15:26.143Z,101498.38
2023-02-04T10:17:56.584Z,101493.97
2023-02-04T10:20:24.950Z,101497.47
2023-02-04T10:22:54.193Z,101501.69
2023-02-04T10:25:23.387Z,101497.75
2023-02-04T10:27:55.322Z,101499.91
2023-02-04T10:30:23.119Z,101507.81
2023-02-04T10:32:50.146Z,101500.66
2023-02-04T10:35:18.354Z,101502.00
2023-02-04T10:37:44.884Z,101508.72
2023-02-04T10:40:25.881Z,101511.53
2023-02-04T10:42:53.092Z,101498.38
2023-02-04T10:45:27.618Z,101494.38
2023-02-04T10:47:55.729Z,101490.94
2023-02-04T10:50:24.600Z,101503.97
2023-02-04T10:53:16.416Z,101506.13
2023-02-04T10:55:47.333Z,101503.66
2023-02-04T10:58:23.582Z,101504.22
2023-02-04T11:00:49.976Z,101493.03
2023-02-04T11:03:22.806Z,101492.25
2023-02-04T11:05:50.019Z,101494.50
2023-02-04T11:08:28.912Z,101487.47
2023-02-04T11:10:58.940Z,101501.56
2023-02-04T11:13:38.684Z,101505.34
2023-02-04T11:16:18.962Z,101503.06
2023-02-04T11:18:53.727Z,101508.88
2023-02-04T11:21:29.240Z,101507.28
2023-02-04T11:24:13.925Z,101503.63
2023-02-04T11:26:42.163Z,101512.03
2023-02-04T11:29:34.561Z,101501.72
2023-02-04T11:32:04.521Z,101509.78
2023-02-04T11:34:33.017Z,101510.91
2023-02-04T11:37:02.337Z,101512.69
2023-02-04T11:39:35.554Z,101505.56
2023-02-04T11:42:02.426Z,101514.84
2023-02-04T11:44:29.410Z,101505.06
2023-02-04T11:46:56.872Z,101505.53
2023-02-04T11:49:25.453Z,101500.06
2023-02-04T11:52:03.694Z,101493.44
2023-02-04T11:54:30.048Z,101497.00
2023-02-04T11:56:59.790Z,101493.81
2023-02-04T11:59:26.243Z,101507.50
2023-02-04T12:02:03.777Z,101487.13
2023-02-04T12:04:30.125Z,101506.41
2023-02-04T12:07:01.852Z,101503.25
2023-02-04T12:09:30.078Z,101513.41
2023-02-04T12:12:01.568Z,101509.50
2023-02-04T12:14:31.170Z,101500.75
2023-02-04T12:16:57.577Z,101506.25
2023-02-04T12:19:26.190Z,101502.81
2023-02-04T12:21:54.689Z,101516.72
2023-02-04T12:24:21.018Z,101518.56
2023-02-04T12:26:47.465Z,101515.25
2023-02-04T12:29:13.780Z,101504.69
2023-02-04T12:31:40.223Z,101517.00
2023-02-04T12:34:06.601Z,101515.06
2023-02-04T12:36:32.912Z,101506.53
2023-02-04T12:38:59.271Z,101510.44
2023-02-04T12:41:26.022Z,101507.00
2023-02-04T12:43:52.447Z,101509.53
2023-02-04T12:46:18.874Z,101515.78
2023-02-04T12:48:45.214Z,101519.69
2023-02-04T12:51:11.709Z,101506.59
2023-02-04T12:53:38.047Z,101519.94
2023-02-04T12:56:04.808Z,101513.63
2023-02-04T12:58:31.104Z,101513.38
2023-02-04T13:00:57.586Z,101516.09
2023-02-04T13:03:24.930Z,101509.72
2023-02-04T13:05:51.261Z,101511.78
2023-02-04T13:08:17.581Z,101512.34
2023-02-04T13:10:43.927Z,101511.28
2023-02-04T13:13:10.219Z,101511.41
2023-02-04T13:15:36.519Z,101512.78
2023-02-04T13:18:02.953Z,101500.06
2023-02-04T13:20:29.246Z,101496.50
2023-02-04T13:22:55.610Z,101495.47
2023-02-04T13:25:21.949Z,101484.16
2023-02-04T13:27:48.351Z,101493.94
2023-02-04T13:30:15.776Z,101504.34
2023-02-04T13:32:42.158Z,101480.94
2023-02-04T13:35:08.457Z,101494.38
2023-02-04T13:37:34.894Z,101499.50
2023-02-04T13:40:01.260Z,101495.09
2023-02-04T13:42:28.098Z,101482.22
2023-02-04T13:44:55.157Z,101491.28
2023-02-04T13:47:21.497Z,101501.78
2023-02-04T13:49:47.997Z,101501.19
2023-02-04T13:52:14.431Z,101505.03
2023-02-04T13:54:40.720Z,101493.09
2023-02-04T13:57:07.052Z,101504.38
2023-02-04T13:59:33.349Z,101509.72
2023-02-04T14:01:59.779Z,101515.25
2023-02-04T14:04:26.971Z,101518.34
2023-02-04T14:06:54.905Z,101510.91
2023-02-04T14:09:21.715Z,101509.25
2023-02-04T14:11:48.050Z,101507.03
2023-02-04T14:14:14.636Z,101512.75
2023-02-04T14:16:41.064Z,101514.13
2023-02-04T14:19:07.536Z,101508.94
2023-02-04T14:21:33.839Z,101507.63
2023-02-04T14:24:01.306Z,101500.75
2023-02-04T14:26:27.629Z,101511.22
2023-02-04T14:28:53.982Z,101515.25
2023-02-04T14:31:20.382Z,101515.13
2023-02-04T14:33:49.156Z,101512.03
2023-02-04T14:36:16.432Z,101515.47
2023-02-04T14:38:42.873Z,101506.22
2023-02-04T14:41:09.174Z,101499.38
2023-02-04T14:43:37.120Z,101506.47
2023-02-04T14:46:05.522Z,101508.88
2023-02-04T14:48:32.107Z,101505.56
2023-02-04T14:50:58.581Z,101505.75
2023-02-04T14:53:24.910Z,101504.63
2023-02-04T14:55:51.249Z,101514.19
2023-02-04T14:58:18.283Z,101513.03
2023-02-04T15:00:44.584Z,101511.78
2023-02-04T15:03:10.892Z,101503.63
2023-02-04T15:05:37.192Z,101510.63
2023-02-04T15:08:04.598Z,101515.28
2023-02-04T15:10:31.290Z,101512.97
2023-02-04T15:12:58.155Z,101520.88
2023-02-04T15:15:24.457Z,101513.38
2023-02-04T15:17:50.783Z,101516.72
2023-02-04T15:20:17.455Z,101516.59
2023-02-04T15:22:43.819Z,101514.53
2023-02-04T15:25:14.605Z,101531.09
2023-02-04T15:27:41.094Z,101528.50
2023-02-04T15:30:07.812Z,101522.72
2023-02-04T15:32:34.204Z,101523.63
2023-02-04T15:35:00.529Z,101535.97
2023-02-04T15:37:26.912Z,101533.94
2023-02-04T15:39:53.311Z,101531.50
2023-02-04T15:42:19.714Z,101529.47
2023-02-04T15:44:46.025Z,101529.94
2023-02-04T15:47:12.342Z,101531.41
2023-02-04T15:49:38.699Z,101524.69
2023-02-04T15:52:08.968Z,101529.81
2023-02-04T15:54:40.122Z,101536.38
2023-02-04T15:57:06.451Z,101543.47
2023-02-04T15:59:32.757Z,101543.75
2023-02-04T16:01:59.048Z,101544.66
2023-02-04T16:04:25.389Z,101549.03
2023-02-04T16:06:58.319Z,101539.91
2023-02-04T16:09:25.581Z,101548.84
2023-02-04T16:11:51.885Z,101545.16
2023-02-04T16:14:18.181Z,101548.44
2023-02-04T16:16:44.496Z,101551.88
2023-02-04T16:19:10.786Z,101558.16
2023-02-04T16:21:37.142Z,101562.44
2023-02-04T16:24:03.658Z,101559.91
2023-02-04T16:26:31.399Z,101573.28
2023-02-04T16:28:58.018Z,101566.34
2023-02-04T16:31:24.544Z,101574.00
2023-02-04T16:33:50.906Z,101559.47
2023-02-04T16:36:18.545Z,101568.28
2023-02-04T16:38:45.148Z,101563.03
2023-02-04T16:41:14.061Z,101565.22
2023-02-04T16:43:40.403Z,101567.56
2023-02-04T16:46:06.800Z,101558.53
2023-02-04T16:48:33.238Z,101564.44
2023-02-04T16:50:59.562Z,101568.66
2023-02-04T16:53:26.000Z,101577.47
2023-02-04T16:55:52.325Z,101554.59
2023-02-04T16:58:19.586Z,101569.81
2023-02-04T17:00:46.008Z,101573.75
2023-02-04T17:03:12.540Z,101583.84
2023-02-04T17:05:39.926Z,101570.81
2023-02-04T17:08:06.710Z,101575.84
2023-02-04T17:10:51.938Z,101578.97
2023-02-04T17:13:18.518Z,101582.84
2023-02-04T17:15:44.905Z,101584.66
2023-02-04T17:18:11.594Z,101582.38
2023-02-04T17:20:37.964Z,101586.72
2023-02-04T17:23:04.261Z,101586.00
2023-02-04T17:25:30.965Z,101592.72
2023-02-04T17:27:57.465Z,101600.13
2023-02-04T17:30:23.898Z,101601.81
2023-02-04T17:32:50.314Z,101597.38
2023-02-04T17:35:17.258Z,101596.22
2023-02-04T17:37:43.849Z,101602.94
2023-02-04T17:40:14.058Z,101621.78
2023-02-04T17:42:40.960Z,101629.34
2023-02-04T17:45:10.339Z,101619.13
2023-02-04T17:47:39.686Z,101620.22
2023-02-04T17:50:10.240Z,101617.69
2023-02-04T17:52:37.810Z,101626.47
2023-02-04T17:55:27.522Z,101623.56
2023-02-04T17:57:55.105Z,101625.16
2023-02-04T18:00:23.410Z,101628.94
2023-02-04T18:02:51.778Z,101633.41
2023-02-04T18:05:21.611Z,101635.72
2023-02-04T18:08:01.383Z,101635.22
2023-02-04T18:10:36.371Z,101633.38
2023-02-04T18:13:13.001Z,101638.66
2023-02-04T18:15:39.544Z,101636.00
2023-02-04T18:18:27.275Z,101634.78
2023-02-04T18:20:59.419Z,101641.66
2023-02-04T18:23:28.356Z,101650.00
2023-02-04T18:25:55.045Z,101643.81
2023-02-04T18:28:22.038Z,101644.63
2023-02-04T18:30:53.051Z,101646.63
2023-02-04T18:33:23.225Z,101655.69
2023-02-04T18:35:51.564Z,101646.34
2023-02-04T18:38:23.445Z,101636.63
2023-02-04T18:40:52.184Z,101634.53
2023-02-04T18:43:24.836Z,101642.09
2023-02-04T18:45:51.741Z,101646.75
2023-02-04T18:48:17.998Z,101651.19
2023-02-04T18:50:46.129Z,101640.84
2023-02-04T18:53:12.418Z,101651.19
2023-02-04T18:55:41.592Z,101648.41
2023-02-04T18:58:17.252Z,101653.66
2023-02-04T19:00:48.972Z,101653.38
2023-02-04T19:03:35.227Z,101654.66
2023-02-04T19:06:03.275Z,101648.31
2023-02-04T19:08:41.711Z,101644.06
2023-02-04T19:11:37.755Z,101642.44
2023-02-04T19:14:32.831Z,101632.88
2023-02-04T19:17:28.480Z,101631.69
2023-02-04T19:19:59.406Z,101631.78
2023-02-04T19:22:49.983Z,101625.38
2023-02-04T19:25:22.198Z,101629.38
2023-02-04T19:27:53.895Z,101630.34
2023-02-04T19:30:26.310Z,101635.66
2023-02-04T19:32:55.809Z,101635.16
2023-02-04T19:35:24.460Z,101636.06
2023-02-04T19:38:00.364Z,101644.31
2023-02-04T19:40:33.576Z,101639.22
2023-02-04T19:43:22.161Z,101642.53
2023-02-04T19:45:50.813Z,101654.44
2023-02-04T19:48:35.390Z,101658.91
2023-02-04T19:51:23.672Z,101654.00
2023-02-04T19:53:53.845Z,101653.94
2023-02-04T19:56:32.196Z,101665.09
2023-02-04T19:59:23.281Z,101659.84
2023-02-04T20:01:59.462Z,101680.38
2023-02-04T20:04:34.413Z,101677.84
2023-02-04T20:07:00.799Z,101673.22
2023-02-04T20:09:30.651Z,101669.47
2023-02-04T20:12:05.721Z,101662.97
2023-02-04T20:14:41.610Z,101683.28
2023-02-04T20:17:38.938Z,101680.06
2023-02-04T20:20:29.266Z,101686.16
2023-02-04T20:23:00.895Z,101694.13
2023-02-04T20:25:36.965Z,101694.03
2023-02-04T20:28:15.683Z,101690.28
2023-02-04T20:30:42.247Z,101676.34
2023-02-04T20:33:23.830Z,101671.25
2023-02-04T20:35:50.101Z,101684.75
2023-02-04T20:38:17.494Z,101685.28
2023-02-04T20:40:47.304Z,101674.78
2023-02-04T20:43:20.053Z,101680.78
2023-02-04T20:45:58.977Z,101687.44
2023-02-04T20:48:31.226Z,101691.63
2023-02-04T20:51:00.870Z,101689.41
2023-02-04T20:53:49.264Z,101688.47
2023-02-04T20:56:40.718Z,101698.88
2023-02-04T20:59:15.958Z,101699.28
2023-02-04T21:01:44.179Z,101693.91
2023-02-04T21:04:19.472Z,101708.50
2023-02-04T21:06:46.129Z,101696.84
2023-02-04T21:09:25.414Z,101695.56
2023-02-04T21:11:54.013Z,101691.69
2023-02-04T21:14:21.427Z,101682.84
2023-02-04T21:16:48.209Z,101687.22
2023-02-04T21:19:14.955Z,101686.44
2023-02-04T21:21:41.652Z,101690.25
2023-02-04T21:24:08.623Z,101690.13
2023-02-04T21:26:34.958Z,101692.47
2023-02-04T21:29:01.365Z,101692.75
2023-02-04T21:31:27.773Z,101692.69
2023-02-04T21:33:54.214Z,101693.75
2023-02-04T21:36:20.857Z,101678.53
2023-02-04T21:38:47.235Z,101682.38
2023-02-04T21:41:13.788Z,101687.66
2023-02-04T21:43:40.117Z,101679.75
2023-02-04T21:46:06.444Z,101677.31
2023-02-04T21:48:32.850Z,101686.00
2023-02-04T21:50:59.263Z,101689.06
2023-02-04T21:53:25.705Z,101692.84
2023-02-04T21:55:52.013Z,101686.66
2023-02-04T21:58:18.349Z,101698.22
2023-02-04T22:00:44.689Z,101701.97
2023-02-04T22:03:17.007Z,101698.13
2023-02-04T22:05:44.569Z,101705.03
2023-02-04T22:08:11.847Z,101704.00
2023-02-04T22:10:38.511Z,101702.28
2023-02-04T22:13:04.841Z,101705.97
2023-02-04T22:15:31.385Z,101688.34
2023-02-04T22:17:57.888Z,101697.00
2023-02-04T22:20:25.350Z,101690.31
2023-02-04T22:22:52.612Z,101685.72
2023-02-04T22:25:20.513Z,101680.59
2023-02-04T22:27:47.087Z,101690.75
2023-02-04T22:30:15.810Z,101683.84
2023-02-04T22:32:42.298Z,101693.97
2023-02-04T22:35:10.451Z,101683.03
2023-02-04T22:37:38.338Z,101690.13
2023-02-04T22:40:05.763Z,101683.28
2023-02-04T22:42:32.096Z,101691.19
2023-02-04T22:44:58.472Z,101697.47
2023-02-04T22:47:25.251Z,101691.25
2023-02-04T22:49:51.572Z,101685.25
2023-02-04T22:52:18.312Z,101691.94
2023-02-04T22:54:44.672Z,101692.66
2023-02-04T22:57:11.057Z,101685.84
2023-02-04T22:59:37.457Z,101692.13
2023-02-04T23:02:03.962Z,101699.63
2023-02-04T23:04:30.297Z,101693.34
2023-02-04T23:06:56.716Z,101701.97
2023-02-04T23:09:23.222Z,101686.94
2023-02-04T23:11:49.660Z,101712.84
2023-02-04T23:14:16.017Z,101704.22
2023-02-04T23:16:42.407Z,101699.22
2023-02-04T23:19:08.787Z,101692.41
2023-02-04T23:21:35.379Z,101697.53
2023-02-04T23:24:01.867Z,101696.72
2023-02-04T23:26:28.235Z,101685.97
2023-02-04T23:28:54.646Z,101689.59
2023-02-04T23:31:20.989Z,101686.88
2023-02-04T23:33:47.296Z,101685.91
2023-02-04T23:36:13.623Z,101674.47
2023-02-04T23:38:39.913Z,101678.13
2023-02-04T23:41:06.257Z,101684.72
2023-02-04T23:43:32.613Z,101684.84
2023-02-04T23:45:59.954Z,101685.69
2023-02-04T23:48:26.334Z,101683.25
2023-02-04T23:50:52.790Z,101677.50
2023-02-04T23:53:19.339Z,101678.63
2023-02-04T23:55:46.107Z,101681.69
2023-02-04T23:58:12.562Z,101680.94
